Terminal Aerodrome Forecast
Issued by NWS

Home | Current Version | Previous Version | Text Only | Print | Product List | Glossary On
Versions: 1 2 3 4 5 6 7 8 9 10 11 12 13 14 15 16 17 18 19 20 21 22 23 24 25 26 27 28 29 30 31 32 33 34 35 36 37 38 39 40 41 42 43 44 45 46 47 48
000
FTUS42 KMFL 302001 AAA
TAFOPF
TAF AMD
KOPF 302001Z 3020/3118 20008KT P6SM VCTS SCT030CB BKN060 BKN250
      TEMPO 3020/3023 3SM TSRA BKN025CB
     FM302300 20007KT P6SM SCT030 BKN100 BKN250
     FM310500 00000KT P6SM SKC
     FM311300 20003KT P6SM SCT030 SCT050
     FM311600 19005KT P6SM VCSH SCT030 SCT050=

USA.gov is the U.S. government's official web portal to all federal, state and local government web resources and services.